createdAt,value
2022-11-07T00:02:09.223Z,11.80
2022-11-07T00:07:13.001Z,11.80
2022-11-07T00:12:16.758Z,11.80
2022-11-07T00:17:21.895Z,11.80
2022-11-07T00:22:25.556Z,11.80
2022-11-07T00:27:29.269Z,11.80
2022-11-07T00:32:34.396Z,11.80
2022-11-07T00:37:38.056Z,11.80
2022-11-07T00:42:41.730Z,11.80
2022-11-07T00:47:46.793Z,11.80
2022-11-07T00:52:50.427Z,11.70
2022-11-07T00:57:54.089Z,11.70
2022-11-07T01:03:13.419Z,11.70
2022-11-07T01:08:17.285Z,11.70
2022-11-07T01:13:21.106Z,11.70
2022-11-07T01:18:26.090Z,11.70
2022-11-07T01:23:29.760Z,11.70
2022-11-07T01:28:33.587Z,11.70
2022-11-07T01:33:39.579Z,11.70
2022-11-07T01:38:45.148Z,11.70
2022-11-07T01:43:51.511Z,11.70
2022-11-07T01:49:04.914Z,11.70
2022-11-07T01:54:09.740Z,11.70
2022-11-07T01:59:17.261Z,11.70
2022-11-07T02:04:30.339Z,11.80
2022-11-07T02:09:34.066Z,11.80
2022-11-07T02:14:37.717Z,11.80
2022-11-07T02:19:45.099Z,11.80
2022-11-07T02:24:54.947Z,11.80
2022-11-07T02:30:02.001Z,11.80
2022-11-07T02:35:07.334Z,11.80
2022-11-07T02:40:12.881Z,11.80
2022-11-07T02:45:20.138Z,11.80
2022-11-07T02:50:23.945Z,11.80
2022-11-07T02:55:29.214Z,11.90
2022-11-07T03:00:32.885Z,11.90
2022-11-07T03:05:36.598Z,11.80
2022-11-07T03:10:41.625Z,11.80
2022-11-07T03:15:45.260Z,11.80
2022-11-07T03:20:48.945Z,11.80
2022-11-07T03:25:53.936Z,11.80
2022-11-07T03:31:01.549Z,11.80
2022-11-07T03:36:05.848Z,11.80
2022-11-07T03:41:17.055Z,11.80
2022-11-07T03:46:20.703Z,11.80
2022-11-07T03:51:24.388Z,11.90
2022-11-07T03:56:29.455Z,11.90
2022-11-07T04:01:33.386Z,11.90
2022-11-07T04:06:37.222Z,11.90
2022-11-07T04:11:59.648Z,12.00
2022-11-07T04:17:21.924Z,12.00
2022-11-07T04:22:26.660Z,12.00
2022-11-07T04:27:43.425Z,12.00
2022-11-07T04:32:47.485Z,12.10
2022-11-07T04:37:51.985Z,12.10
2022-11-07T04:42:57.354Z,12.00
2022-11-07T04:48:00.976Z,12.10
2022-11-07T04:53:04.708Z,12.10
2022-11-07T04:58:09.973Z,12.10
2022-11-07T05:03:14.062Z,12.10
2022-11-07T05:08:18.015Z,12.10
2022-11-07T05:13:23.129Z,12.20
2022-11-07T05:18:26.785Z,12.20
2022-11-07T05:23:30.402Z,12.20
2022-11-07T05:28:39.309Z,12.20
2022-11-07T05:33:46.367Z,12.20
2022-11-07T05:38:52.053Z,12.20
2022-11-07T05:43:57.540Z,12.20
2022-11-07T05:49:01.474Z,12.20
2022-11-07T05:54:05.346Z,12.20
2022-11-07T05:59:10.795Z,12.20
2022-11-07T06:04:14.681Z,12.20
2022-11-07T06:09:18.299Z,12.20
2022-11-07T06:14:24.183Z,12.20
2022-11-07T06:19:27.981Z,12.20
2022-11-07T06:24:31.757Z,12.20
2022-11-07T06:29:39.443Z,12.20
2022-11-07T06:34:43.287Z,12.20
2022-11-07T06:39:47.086Z,12.20
2022-11-07T06:44:52.384Z,12.20
2022-11-07T06:49:56.135Z,12.20
2022-11-07T06:54:59.793Z,12.20
2022-11-07T07:00:06.060Z,12.20
2022-11-07T07:05:10.391Z,12.20
2022-11-07T07:10:14.219Z,12.20
2022-11-07T07:15:19.341Z,12.30
2022-11-07T07:20:22.967Z,12.30
2022-11-07T07:25:27.159Z,12.30
2022-11-07T07:30:32.216Z,12.30
2022-11-07T07:35:35.947Z,12.30
2022-11-07T07:40:39.752Z,12.30
2022-11-07T07:45:44.926Z,12.30
2022-11-07T07:50:49.804Z,12.30
2022-11-07T07:55:57.904Z,12.40
2022-11-07T08:01:03.516Z,12.40
2022-11-07T08:06:07.764Z,12.50
2022-11-07T08:11:11.894Z,12.50
2022-11-07T08:16:17.039Z,12.50
2022-11-07T08:21:20.714Z,12.60
2022-11-07T08:26:24.475Z,12.60
2022-11-07T08:31:29.591Z,12.70
2022-11-07T08:36:33.349Z,12.70
2022-11-07T08:41:37.066Z,12.80
2022-11-07T08:46:42.155Z,12.80
2022-11-07T08:51:45.760Z,12.90
2022-11-07T08:56:49.639Z,12.90
2022-11-07T09:02:39.091Z,12.90
2022-11-07T09:07:18.355Z,12.90
2022-11-07T09:12:22.066Z,12.90
2022-11-07T09:17:27.301Z,12.90
2022-11-07T09:22:31.252Z,13.00
2022-11-07T09:27:35.096Z,13.00
2022-11-07T09:32:47.242Z,13.00
2022-11-07T09:37:52.242Z,13.00
2022-11-07T09:43:09.103Z,13.00
2022-11-07T09:48:21.375Z,13.10
2022-11-07T09:53:33.019Z,13.10
2022-11-07T09:58:40.565Z,13.10
2022-11-07T10:04:18.164Z,13.10
2022-11-07T10:09:15.833Z,13.20
2022-11-07T10:14:29.182Z,13.30
2022-11-07T10:19:46.397Z,13.30
2022-11-07T10:25:05.574Z,13.30
2022-11-07T10:30:17.092Z,13.30
2022-11-07T10:35:28.129Z,13.40
2022-11-07T10:40:38.484Z,13.40
2022-11-07T10:45:43.098Z,13.40
2022-11-07T10:50:54.372Z,13.50
2022-11-07T10:55:59.304Z,13.50
2022-11-07T11:01:05.795Z,13.50
2022-11-07T11:06:24.038Z,13.60
2022-11-07T11:11:33.393Z,13.60
2022-11-07T11:16:40.155Z,13.70
2022-11-07T11:21:47.176Z,13.80
2022-11-07T11:26:52.733Z,13.80
2022-11-07T11:31:58.241Z,13.80
2022-11-07T11:37:09.965Z,13.80
2022-11-07T11:42:21.102Z,13.90
2022-11-07T11:47:34.165Z,14.00
2022-11-07T11:52:40.467Z,14.00
2022-11-07T11:57:54.904Z,14.10
2022-11-07T12:03:14.278Z,14.20
2022-11-07T12:08:30.530Z,14.20
2022-11-07T12:13:43.229Z,14.30
2022-11-07T12:18:50.937Z,14.50
2022-11-07T12:24:10.607Z,14.70
2022-11-07T12:29:25.096Z,14.80
2022-11-07T12:34:46.498Z,14.70
2022-11-07T12:40:04.529Z,14.70
2022-11-07T12:45:18.929Z,14.70
2022-11-07T12:50:33.795Z,14.70
2022-11-07T12:55:44.338Z,14.60
2022-11-07T13:00:48.601Z,14.60
2022-11-07T13:06:03.102Z,14.50
2022-11-07T13:11:16.659Z,14.60
2022-11-07T13:16:26.647Z,14.50
2022-11-07T13:21:41.600Z,14.50
2022-11-07T13:26:48.067Z,14.50
2022-11-07T13:32:05.957Z,14.50
2022-11-07T13:37:17.986Z,14.50
2022-11-07T13:42:25.243Z,14.50
2022-11-07T13:47:35.249Z,14.50
2022-11-07T13:52:45.083Z,14.60
2022-11-07T13:57:54.992Z,14.60
2022-11-07T14:02:59.803Z,14.60
2022-11-07T14:08:06.690Z,14.60
2022-11-07T14:13:15.437Z,14.60
2022-11-07T14:18:20.788Z,14.60
2022-11-07T14:23:26.784Z,14.60
2022-11-07T14:28:38.057Z,14.60
2022-11-07T14:33:48.852Z,14.60
2022-11-07T14:38:54.351Z,14.60
2022-11-07T14:44:03.950Z,14.60
2022-11-07T14:49:07.819Z,14.60
2022-11-07T14:54:18.869Z,14.60
2022-11-07T14:59:26.611Z,14.60
2022-11-07T15:04:36.555Z,14.60
2022-11-07T15:09:41.551Z,14.60
2022-11-07T15:14:49.371Z,14.60
2022-11-07T15:19:59.963Z,14.50
2022-11-07T15:25:04.044Z,14.50
2022-11-07T15:30:28.147Z,14.50
2022-11-07T15:35:43.998Z,14.50
2022-11-07T15:40:49.058Z,14.50
2022-11-07T15:45:54.947Z,14.50
2022-11-07T15:50:58.721Z,14.50
2022-11-07T15:56:05.208Z,14.50
2022-11-07T16:01:13.784Z,14.40
2022-11-07T16:06:23.977Z,14.40
2022-11-07T16:11:28.031Z,14.40
2022-11-07T16:16:35.161Z,14.40
2022-11-07T16:21:38.751Z,14.40
2022-11-07T16:26:42.486Z,14.40
2022-11-07T16:31:47.592Z,14.40
2022-11-07T16:36:51.446Z,14.40
2022-11-07T16:41:55.080Z,14.40
2022-11-07T16:47:00.503Z,14.40
2022-11-07T16:52:04.937Z,14.40
2022-11-07T16:57:12.634Z,14.40
2022-11-07T17:02:21.702Z,14.40
2022-11-07T17:07:25.697Z,14.50
2022-11-07T17:12:29.470Z,14.50
2022-11-07T17:17:34.465Z,14.50
2022-11-07T17:22:38.300Z,14.50
2022-11-07T17:27:43.290Z,14.50
2022-11-07T17:32:48.367Z,14.50
2022-11-07T17:37:52.093Z,14.50
2022-11-07T17:42:55.930Z,14.50
2022-11-07T17:48:01.047Z,14.40
2022-11-07T17:53:04.781Z,14.50
2022-11-07T17:58:08.526Z,14.40
2022-11-07T18:03:13.644Z,14.40
2022-11-07T18:08:31.302Z,14.40
2022-11-07T18:13:41.249Z,14.40
2022-11-07T18:18:46.305Z,14.40
2022-11-07T18:23:49.902Z,14.40
2022-11-07T18:28:54.615Z,14.40
2022-11-07T18:34:01.489Z,14.40
2022-11-07T18:39:06.432Z,14.30
2022-11-07T18:44:10.591Z,14.40
2022-11-07T18:49:18.707Z,14.30
2022-11-07T18:54:23.321Z,14.40
2022-11-07T18:59:27.182Z,14.40
2022-11-07T19:04:32.308Z,14.40
2022-11-07T19:09:36.968Z,14.40
2022-11-07T19:14:40.699Z,14.40
2022-11-07T19:19:45.909Z,14.40
2022-11-07T19:24:49.579Z,14.40
2022-11-07T19:29:53.322Z,14.40
2022-11-07T19:34:58.357Z,14.40
2022-11-07T19:40:02.032Z,14.30
2022-11-07T19:45:06.572Z,14.40
2022-11-07T19:50:12.325Z,14.30
2022-11-07T19:55:16.041Z,14.30
2022-11-07T20:00:20.040Z,14.30
2022-11-07T20:05:25.335Z,14.30
2022-11-07T20:10:29.100Z,14.30
2022-11-07T20:15:32.748Z,14.30
2022-11-07T20:20:37.793Z,14.30
2022-11-07T20:25:42.291Z,14.30
2022-11-07T20:30:45.961Z,14.30
2022-11-07T20:36:00.630Z,14.30
2022-11-07T20:41:07.244Z,14.30
2022-11-07T20:46:12.854Z,14.30
2022-11-07T20:51:20.960Z,14.30
2022-11-07T20:56:26.584Z,14.30
2022-11-07T21:01:36.195Z,14.30
2022-11-07T21:06:42.048Z,14.30
2022-11-07T21:11:45.667Z,14.40
2022-11-07T21:16:49.422Z,14.30
2022-11-07T21:21:54.460Z,14.30
2022-11-07T21:26:58.119Z,14.30
2022-11-07T21:32:02.593Z,14.30
2022-11-07T21:37:07.944Z,14.30
2022-11-07T21:42:12.727Z,14.30
2022-11-07T21:47:16.398Z,14.30
2022-11-07T21:52:21.445Z,14.30
2022-11-07T21:57:26.227Z,14.30
2022-11-07T22:02:29.972Z,14.30
2022-11-07T22:07:35.935Z,14.30
2022-11-07T22:12:39.626Z,14.20
2022-11-07T22:17:43.325Z,14.20
2022-11-07T22:22:50.106Z,14.20
2022-11-07T22:27:53.872Z,14.20
2022-11-07T22:32:57.629Z,14.10
2022-11-07T22:38:02.672Z,14.00
2022-11-07T22:43:06.554Z,14.00
2022-11-07T22:48:10.694Z,14.00
2022-11-07T22:53:16.196Z,13.90
2022-11-07T22:58:20.438Z,13.90
2022-11-07T23:03:24.356Z,13.90
2022-11-07T23:08:30.908Z,13.90
2022-11-07T23:13:34.784Z,13.80
2022-11-07T23:18:38.502Z,13.80
2022-11-07T23:23:43.931Z,13.70
2022-11-07T23:28:48.182Z,13.70
2022-11-07T23:33:53.697Z,13.70
2022-11-07T23:38:58.748Z,13.70
2022-11-07T23:44:02.485Z,13.60
2022-11-07T23:49:23.435Z,13.60
2022-11-07T23:54:45.759Z,13.60
